You are not logged in, Click here to log in
機場資訊:LDDU Welcome to Taiwan Airways 台灣虛擬航空
ICAO: LDDU Country: Dubrovnik
Latitude: 42.5614 Longitude: 18.2682
Total Arrivals: 1 Total Departures: 1
Latest Arrival: 9LTK43 (LTBA-LDDU)Arthur. Kung Latest Departure: IG1113 (LDDU-LIRF)Arthur. Kung
Scenery:
METAR : LDDU 141800Z 32004KT CAVOK 18/14 Q1020 NOSIG

Dubrovnik Airport